sensor_id;sensor_type;location;lat;lon;timestamp;temperature;humidity
54158;DHT22;40065;49.894;10.358;2023-10-08T00:01:13;16.00;99.90
54158;DHT22;40065;49.894;10.358;2023-10-08T00:06:17;16.00;99.90
54158;DHT22;40065;49.894;10.358;2023-10-08T00:11:22;15.90;99.90
54158;DHT22;40065;49.894;10.358;2023-10-08T00:16:24;15.90;99.90
54158;DHT22;40065;49.894;10.358;2023-10-08T00:21:29;15.90;99.90
54158;DHT22;40065;49.894;10.358;2023-10-08T00:26:35;15.80;99.90
54158;DHT22;40065;49.894;10.358;2023-10-08T00:31:45;15.80;99.90
54158;DHT22;40065;49.894;10.358;2023-10-08T00:36:48;15.70;99.90
54158;DHT22;40065;49.894;10.358;2023-10-08T00:41:52;15.60;99.90
54158;DHT22;40065;49.894;10.358;2023-10-08T00:47:01;15.60;99.90
54158;DHT22;40065;49.894;10.358;2023-10-08T00:52:03;15.60;99.90
54158;DHT22;40065;49.894;10.358;2023-10-08T00:57:09;15.60;99.90
54158;DHT22;40065;49.894;10.358;2023-10-08T01:02:12;15.60;99.90
54158;DHT22;40065;49.894;10.358;2023-10-08T01:07:22;15.60;99.90
54158;DHT22;40065;49.894;10.358;2023-10-08T01:12:25;15.70;99.90
54158;DHT22;40065;49.894;10.358;2023-10-08T01:17:37;15.70;99.90
54158;DHT22;40065;49.894;10.358;2023-10-08T01:22:53;15.70;99.90
54158;DHT22;40065;49.894;10.358;2023-10-08T01:27:57;15.70;99.90
54158;DHT22;40065;49.894;10.358;2023-10-08T01:33:02;15.70;99.90
54158;DHT22;40065;49.894;10.358;2023-10-08T01:38:05;15.80;99.90
54158;DHT22;40065;49.894;10.358;2023-10-08T01:43:09;15.70;99.90
54158;DHT22;40065;49.894;10.358;2023-10-08T01:48:12;15.70;99.90
54158;DHT22;40065;49.894;10.358;2023-10-08T01:53:14;15.70;99.90
54158;DHT22;40065;49.894;10.358;2023-10-08T01:58:18;15.80;99.90
54158;DHT22;40065;49.894;10.358;2023-10-08T02:03:22;15.70;99.90
54158;DHT22;40065;49.894;10.358;2023-10-08T02:08:25;15.60;99.90
54158;DHT22;40065;49.894;10.358;2023-10-08T02:13:32;15.60;99.90
54158;DHT22;40065;49.894;10.358;2023-10-08T02:18:36;15.60;99.90
54158;DHT22;40065;49.894;10.358;2023-10-08T02:23:39;15.40;99.90
54158;DHT22;40065;49.894;10.358;2023-10-08T02:28:41;15.40;99.90
54158;DHT22;40065;49.894;10.358;2023-10-08T02:33:43;15.30;99.90
54158;DHT22;40065;49.894;10.358;2023-10-08T02:38:45;15.30;99.90
54158;DHT22;40065;49.894;10.358;2023-10-08T02:43:47;15.30;99.90
54158;DHT22;40065;49.894;10.358;2023-10-08T02:48:50;15.20;99.90
54158;DHT22;40065;49.894;10.358;2023-10-08T02:53:54;15.10;99.90
54158;DHT22;40065;49.894;10.358;2023-10-08T02:58:56;15.10;99.90
54158;DHT22;40065;49.894;10.358;2023-10-08T03:03:58;15.10;99.90
54158;DHT22;40065;49.894;10.358;2023-10-08T03:09:06;15.10;99.90
54158;DHT22;40065;49.894;10.358;2023-10-08T03:14:09;15.10;99.90
54158;DHT22;40065;49.894;10.358;2023-10-08T03:19:17;15.00;99.90
54158;DHT22;40065;49.894;10.358;2023-10-08T03:24:23;15.10;99.90
54158;DHT22;40065;49.894;10.358;2023-10-08T03:29:35;15.00;99.90
54158;DHT22;40065;49.894;10.358;2023-10-08T03:34:48;15.00;99.90
54158;DHT22;40065;49.894;10.358;2023-10-08T03:39:51;15.00;99.90
54158;DHT22;40065;49.894;10.358;2023-10-08T03:44:53;15.00;99.90
54158;DHT22;40065;49.894;10.358;2023-10-08T03:49:57;15.10;99.90
54158;DHT22;40065;49.894;10.358;2023-10-08T03:55:07;15.00;99.90
54158;DHT22;40065;49.894;10.358;2023-10-08T04:00:23;15.00;99.90
54158;DHT22;40065;49.894;10.358;2023-10-08T04:05:33;15.00;99.90
54158;DHT22;40065;49.894;10.358;2023-10-08T04:10:46;14.90;99.90
54158;DHT22;40065;49.894;10.358;2023-10-08T04:15:48;15.00;99.90
54158;DHT22;40065;49.894;10.358;2023-10-08T04:20:49;15.00;99.90
54158;DHT22;40065;49.894;10.358;2023-10-08T04:26:06;15.10;99.90
54158;DHT22;40065;49.894;10.358;2023-10-08T04:31:08;15.10;99.90
54158;DHT22;40065;49.894;10.358;2023-10-08T04:36:16;15.10;99.90
54158;DHT22;40065;49.894;10.358;2023-10-08T04:41:22;15.10;99.90
54158;DHT22;40065;49.894;10.358;2023-10-08T04:46:29;15.20;99.90
54158;DHT22;40065;49.894;10.358;2023-10-08T04:51:49;15.20;99.90
54158;DHT22;40065;49.894;10.358;2023-10-08T04:56:50;15.20;99.90
54158;DHT22;40065;49.894;10.358;2023-10-08T05:01:54;15.20;99.90
54158;DHT22;40065;49.894;10.358;2023-10-08T05:07:25;15.20;99.90
54158;DHT22;40065;49.894;10.358;2023-10-08T05:12:59;15.00;99.90
54158;DHT22;40065;49.894;10.358;2023-10-08T05:18:09;14.90;99.90
54158;DHT22;40065;49.894;10.358;2023-10-08T05:23:18;14.70;99.90
54158;DHT22;40065;49.894;10.358;2023-10-08T05:28:42;14.70;99.90
54158;DHT22;40065;49.894;10.358;2023-10-08T05:34:03;14.80;99.90
54158;DHT22;40065;49.894;10.358;2023-10-08T05:39:26;14.70;99.90
54158;DHT22;40065;49.894;10.358;2023-10-08T05:44:43;14.70;99.90
54158;DHT22;40065;49.894;10.358;2023-10-08T05:50:08;14.70;99.90
54158;DHT22;40065;49.894;10.358;2023-10-08T05:55:19;14.60;99.90
54158;DHT22;40065;49.894;10.358;2023-10-08T06:00:28;14.70;99.90
54158;DHT22;40065;49.894;10.358;2023-10-08T06:05:36;14.70;99.90
54158;DHT22;40065;49.894;10.358;2023-10-08T06:10:45;14.70;99.90
54158;DHT22;40065;49.894;10.358;2023-10-08T06:15:58;14.80;99.90
54158;DHT22;40065;49.894;10.358;2023-10-08T06:21:05;14.80;99.90
54158;DHT22;40065;49.894;10.358;2023-10-08T06:26:10;15.10;99.90
54158;DHT22;40065;49.894;10.358;2023-10-08T06:31:12;14.90;99.90
54158;DHT22;40065;49.894;10.358;2023-10-08T06:36:18;14.90;99.90
54158;DHT22;40065;49.894;10.358;2023-10-08T06:41:25;15.00;99.90
54158;DHT22;40065;49.894;10.358;2023-10-08T06:46:52;15.20;99.90
54158;DHT22;40065;49.894;10.358;2023-10-08T06:51:56;15.30;99.90
54158;DHT22;40065;49.894;10.358;2023-10-08T06:56:58;15.60;99.90
54158;DHT22;40065;49.894;10.358;2023-10-08T07:02:01;15.80;99.90
54158;DHT22;40065;49.894;10.358;2023-10-08T07:07:03;15.80;99.90
54158;DHT22;40065;49.894;10.358;2023-10-08T07:12:11;15.80;99.90
54158;DHT22;40065;49.894;10.358;2023-10-08T07:17:16;15.80;99.90
54158;DHT22;40065;49.894;10.358;2023-10-08T07:22:22;16.50;99.90
54158;DHT22;40065;49.894;10.358;2023-10-08T07:27:25;16.60;99.90
54158;DHT22;40065;49.894;10.358;2023-10-08T07:32:33;16.90;99.90
54158;DHT22;40065;49.894;10.358;2023-10-08T07:37:36;17.30;99.90
54158;DHT22;40065;49.894;10.358;2023-10-08T07:42:38;17.70;99.90
54158;DHT22;40065;49.894;10.358;2023-10-08T07:47:39;18.10;99.90
54158;DHT22;40065;49.894;10.358;2023-10-08T07:52:42;18.70;99.90
54158;DHT22;40065;49.894;10.358;2023-10-08T07:57:46;22.20;98.50
54158;DHT22;40065;49.894;10.358;2023-10-08T08:02:48;23.60;95.30
54158;DHT22;40065;49.894;10.358;2023-10-08T08:07:51;23.40;94.80
54158;DHT22;40065;49.894;10.358;2023-10-08T08:12:54;20.70;98.50
54158;DHT22;40065;49.894;10.358;2023-10-08T08:17:59;18.90;99.90
54158;DHT22;40065;49.894;10.358;2023-10-08T08:23:02;18.10;99.90
54158;DHT22;40065;49.894;10.358;2023-10-08T08:28:08;17.70;99.90
54158;DHT22;40065;49.894;10.358;2023-10-08T08:33:19;17.40;99.90
54158;DHT22;40065;49.894;10.358;2023-10-08T08:38:24;17.20;99.90
54158;DHT22;40065;49.894;10.358;2023-10-08T08:43:26;17.20;99.90
54158;DHT22;40065;49.894;10.358;2023-10-08T08:48:30;17.30;99.90
54158;DHT22;40065;49.894;10.358;2023-10-08T08:53:34;17.50;99.90
54158;DHT22;40065;49.894;10.358;2023-10-08T08:58:36;17.80;99.90
54158;DHT22;40065;49.894;10.358;2023-10-08T09:03:39;17.90;99.90
54158;DHT22;40065;49.894;10.358;2023-10-08T09:08:41;18.40;99.90
54158;DHT22;40065;49.894;10.358;2023-10-08T09:13:47;19.10;99.90
54158;DHT22;40065;49.894;10.358;2023-10-08T09:18:49;20.90;99.90
54158;DHT22;40065;49.894;10.358;2023-10-08T09:23:52;20.40;99.90
54158;DHT22;40065;49.894;10.358;2023-10-08T09:28:56;19.80;99.90
54158;DHT22;40065;49.894;10.358;2023-10-08T09:33:59;19.30;99.90
54158;DHT22;40065;49.894;10.358;2023-10-08T09:39:02;19.20;99.90
54158;DHT22;40065;49.894;10.358;2023-10-08T09:44:08;18.90;99.90
54158;DHT22;40065;49.894;10.358;2023-10-08T09:49:14;18.60;99.90
54158;DHT22;40065;49.894;10.358;2023-10-08T09:54:24;18.50;99.90
54158;DHT22;40065;49.894;10.358;2023-10-08T09:59:35;18.90;99.90
54158;DHT22;40065;49.894;10.358;2023-10-08T10:04:43;19.60;99.90
54158;DHT22;40065;49.894;10.358;2023-10-08T10:09:46;19.70;99.90
54158;DHT22;40065;49.894;10.358;2023-10-08T10:14:53;19.50;99.90
54158;DHT22;40065;49.894;10.358;2023-10-08T10:20:01;19.60;99.90
54158;DHT22;40065;49.894;10.358;2023-10-08T10:25:07;19.40;99.90
54158;DHT22;40065;49.894;10.358;2023-10-08T10:30:21;19.00;99.90
54158;DHT22;40065;49.894;10.358;2023-10-08T10:35:25;18.70;99.90
54158;DHT22;40065;49.894;10.358;2023-10-08T10:40:29;18.70;99.90
54158;DHT22;40065;49.894;10.358;2023-10-08T10:45:41;18.90;99.90
54158;DHT22;40065;49.894;10.358;2023-10-08T10:50:45;19.10;99.90
54158;DHT22;40065;49.894;10.358;2023-10-08T10:56:14;19.30;99.90
54158;DHT22;40065;49.894;10.358;2023-10-08T11:01:26;19.50;99.90
54158;DHT22;40065;49.894;10.358;2023-10-08T11:06:31;19.80;99.90
54158;DHT22;40065;49.894;10.358;2023-10-08T11:11:37;20.00;99.90
54158;DHT22;40065;49.894;10.358;2023-10-08T11:16:47;19.30;99.90
54158;DHT22;40065;49.894;10.358;2023-10-08T11:21:52;19.10;99.90
54158;DHT22;40065;49.894;10.358;2023-10-08T11:26:57;19.10;99.90
54158;DHT22;40065;49.894;10.358;2023-10-08T11:32:18;19.20;99.90
54158;DHT22;40065;49.894;10.358;2023-10-08T11:37:32;19.20;99.90
54158;DHT22;40065;49.894;10.358;2023-10-08T11:42:37;19.10;99.90
54158;DHT22;40065;49.894;10.358;2023-10-08T11:47:38;19.00;99.90
54158;DHT22;40065;49.894;10.358;2023-10-08T11:52:45;19.00;99.90
54158;DHT22;40065;49.894;10.358;2023-10-08T11:57:48;19.10;99.90
54158;DHT22;40065;49.894;10.358;2023-10-08T12:02:52;19.30;99.90
54158;DHT22;40065;49.894;10.358;2023-10-08T12:07:58;19.50;99.90
54158;DHT22;40065;49.894;10.358;2023-10-08T12:13:00;19.60;99.90
54158;DHT22;40065;49.894;10.358;2023-10-08T12:18:02;19.50;99.90
54158;DHT22;40065;49.894;10.358;2023-10-08T12:23:11;19.10;99.90
54158;DHT22;40065;49.894;10.358;2023-10-08T12:28:20;18.80;99.90
54158;DHT22;40065;49.894;10.358;2023-10-08T12:33:23;18.80;99.90
54158;DHT22;40065;49.894;10.358;2023-10-08T12:38:28;18.70;99.90
54158;DHT22;40065;49.894;10.358;2023-10-08T12:43:30;18.50;99.90
54158;DHT22;40065;49.894;10.358;2023-10-08T12:48:32;18.60;99.90
54158;DHT22;40065;49.894;10.358;2023-10-08T12:53:34;18.40;99.90
54158;DHT22;40065;49.894;10.358;2023-10-08T12:58:36;18.10;99.90
54158;DHT22;40065;49.894;10.358;2023-10-08T13:03:49;18.00;99.90
54158;DHT22;40065;49.894;10.358;2023-10-08T13:08:55;17.90;99.90
54158;DHT22;40065;49.894;10.358;2023-10-08T13:13:57;17.80;99.90
54158;DHT22;40065;49.894;10.358;2023-10-08T13:18:59;17.50;99.90
54158;DHT22;40065;49.894;10.358;2023-10-08T13:24:01;17.70;99.90
54158;DHT22;40065;49.894;10.358;2023-10-08T13:29:05;17.50;99.90
54158;DHT22;40065;49.894;10.358;2023-10-08T13:34:07;17.30;99.90
54158;DHT22;40065;49.894;10.358;2023-10-08T13:39:14;17.40;99.90
54158;DHT22;40065;49.894;10.358;2023-10-08T13:44:23;17.30;99.90
54158;DHT22;40065;49.894;10.358;2023-10-08T13:49:31;17.50;99.90
54158;DHT22;40065;49.894;10.358;2023-10-08T13:54:36;17.60;99.90
54158;DHT22;40065;49.894;10.358;2023-10-08T13:59:43;17.40;99.90
54158;DHT22;40065;49.894;10.358;2023-10-08T14:04:45;17.50;99.90
54158;DHT22;40065;49.894;10.358;2023-10-08T14:09:47;17.30;99.90
54158;DHT22;40065;49.894;10.358;2023-10-08T14:14:49;17.50;99.90
54158;DHT22;40065;49.894;10.358;2023-10-08T14:19:51;17.40;99.90
54158;DHT22;40065;49.894;10.358;2023-10-08T14:24:54;17.50;99.90
54158;DHT22;40065;49.894;10.358;2023-10-08T14:30:02;17.40;99.90
54158;DHT22;40065;49.894;10.358;2023-10-08T14:35:07;17.50;99.90
54158;DHT22;40065;49.894;10.358;2023-10-08T14:40:28;17.70;99.90
54158;DHT22;40065;49.894;10.358;2023-10-08T14:45:53;17.60;99.90
54158;DHT22;40065;49.894;10.358;2023-10-08T14:50:55;17.30;99.90
54158;DHT22;40065;49.894;10.358;2023-10-08T14:56:00;17.30;99.90
54158;DHT22;40065;49.894;10.358;2023-10-08T15:01:05;17.20;99.90
54158;DHT22;40065;49.894;10.358;2023-10-08T15:06:07;17.10;99.90
54158;DHT22;40065;49.894;10.358;2023-10-08T15:11:09;17.00;99.90
54158;DHT22;40065;49.894;10.358;2023-10-08T15:16:12;16.90;99.90
54158;DHT22;40065;49.894;10.358;2023-10-08T15:21:15;17.00;99.90
54158;DHT22;40065;49.894;10.358;2023-10-08T15:26:19;17.20;99.90
54158;DHT22;40065;49.894;10.358;2023-10-08T15:31:21;17.00;99.90
54158;DHT22;40065;49.894;10.358;2023-10-08T15:36:23;17.00;99.90
54158;DHT22;40065;49.894;10.358;2023-10-08T15:41:25;16.80;99.90
54158;DHT22;40065;49.894;10.358;2023-10-08T15:46:27;16.80;99.90
54158;DHT22;40065;49.894;10.358;2023-10-08T15:51:32;16.60;99.90
54158;DHT22;40065;49.894;10.358;2023-10-08T15:56:34;16.50;99.90
54158;DHT22;40065;49.894;10.358;2023-10-08T16:01:36;16.40;99.90
54158;DHT22;40065;49.894;10.358;2023-10-08T16:06:38;16.10;99.90
54158;DHT22;40065;49.894;10.358;2023-10-08T16:11:40;16.20;99.90
54158;DHT22;40065;49.894;10.358;2023-10-08T16:16:43;16.20;99.90
54158;DHT22;40065;49.894;10.358;2023-10-08T16:21:47;16.30;99.90
54158;DHT22;40065;49.894;10.358;2023-10-08T16:26:50;16.30;99.90
54158;DHT22;40065;49.894;10.358;2023-10-08T16:31:52;16.40;99.90
54158;DHT22;40065;49.894;10.358;2023-10-08T16:36:54;16.30;99.90
54158;DHT22;40065;49.894;10.358;2023-10-08T16:41:56;16.10;99.90
54158;DHT22;40065;49.894;10.358;2023-10-08T16:46:58;15.90;99.90
54158;DHT22;40065;49.894;10.358;2023-10-08T16:52:00;15.70;99.90
54158;DHT22;40065;49.894;10.358;2023-10-08T16:57:02;15.60;99.90
54158;DHT22;40065;49.894;10.358;2023-10-08T17:02:06;15.50;99.90
54158;DHT22;40065;49.894;10.358;2023-10-08T17:07:08;15.30;99.90
54158;DHT22;40065;49.894;10.358;2023-10-08T17:12:10;15.20;99.90
54158;DHT22;40065;49.894;10.358;2023-10-08T17:17:13;15.00;99.90
54158;DHT22;40065;49.894;10.358;2023-10-08T17:22:15;15.10;99.90
54158;DHT22;40065;49.894;10.358;2023-10-08T17:27:17;15.10;99.90
54158;DHT22;40065;49.894;10.358;2023-10-08T17:32:19;15.10;99.90
54158;DHT22;40065;49.894;10.358;2023-10-08T17:37:23;15.10;99.90
54158;DHT22;40065;49.894;10.358;2023-10-08T17:42:25;15.10;99.90
54158;DHT22;40065;49.894;10.358;2023-10-08T17:47:29;15.10;99.90
54158;DHT22;40065;49.894;10.358;2023-10-08T17:52:31;15.00;99.90
54158;DHT22;40065;49.894;10.358;2023-10-08T17:57:33;14.90;99.90
54158;DHT22;40065;49.894;10.358;2023-10-08T18:02:35;14.80;99.90
54158;DHT22;40065;49.894;10.358;2023-10-08T18:07:37;14.70;99.90
54158;DHT22;40065;49.894;10.358;2023-10-08T18:12:39;14.60;99.90
54158;DHT22;40065;49.894;10.358;2023-10-08T18:17:42;14.50;99.90
54158;DHT22;40065;49.894;10.358;2023-10-08T18:22:49;14.40;99.90
54158;DHT22;40065;49.894;10.358;2023-10-08T18:27:52;14.30;99.90
54158;DHT22;40065;49.894;10.358;2023-10-08T18:32:55;14.20;99.90
54158;DHT22;40065;49.894;10.358;2023-10-08T18:37:57;14.20;99.90
54158;DHT22;40065;49.894;10.358;2023-10-08T18:43:01;14.20;99.90
54158;DHT22;40065;49.894;10.358;2023-10-08T18:48:03;14.30;99.90
54158;DHT22;40065;49.894;10.358;2023-10-08T18:53:06;14.30;99.90
54158;DHT22;40065;49.894;10.358;2023-10-08T18:58:09;14.20;99.90
54158;DHT22;40065;49.894;10.358;2023-10-08T19:03:12;14.10;99.90
54158;DHT22;40065;49.894;10.358;2023-10-08T19:08:14;14.00;99.90
54158;DHT22;40065;49.894;10.358;2023-10-08T19:13:16;13.90;99.90
54158;DHT22;40065;49.894;10.358;2023-10-08T19:18:19;13.90;99.90
54158;DHT22;40065;49.894;10.358;2023-10-08T19:23:24;14.00;99.90
54158;DHT22;40065;49.894;10.358;2023-10-08T19:28:26;14.00;99.90
54158;DHT22;40065;49.894;10.358;2023-10-08T19:33:28;14.10;99.90
54158;DHT22;40065;49.894;10.358;2023-10-08T19:38:31;14.10;99.90
54158;DHT22;40065;49.894;10.358;2023-10-08T19:43:33;14.00;99.90
54158;DHT22;40065;49.894;10.358;2023-10-08T19:48:35;14.00;99.90
54158;DHT22;40065;49.894;10.358;2023-10-08T19:53:39;13.90;99.90
54158;DHT22;40065;49.894;10.358;2023-10-08T19:58:40;13.90;99.90
54158;DHT22;40065;49.894;10.358;2023-10-08T20:03:42;13.90;99.90
54158;DHT22;40065;49.894;10.358;2023-10-08T20:08:44;13.90;99.90
54158;DHT22;40065;49.894;10.358;2023-10-08T20:13:47;13.70;99.90
54158;DHT22;40065;49.894;10.358;2023-10-08T20:18:50;13.80;99.90
54158;DHT22;40065;49.894;10.358;2023-10-08T20:23:52;13.70;99.90
54158;DHT22;40065;49.894;10.358;2023-10-08T20:28:54;13.70;99.90
54158;DHT22;40065;49.894;10.358;2023-10-08T20:33:58;13.70;99.90
54158;DHT22;40065;49.894;10.358;2023-10-08T20:39:01;13.70;99.90
54158;DHT22;40065;49.894;10.358;2023-10-08T20:44:04;13.60;99.90
54158;DHT22;40065;49.894;10.358;2023-10-08T20:49:06;13.50;99.90
54158;DHT22;40065;49.894;10.358;2023-10-08T20:54:08;13.30;99.90
54158;DHT22;40065;49.894;10.358;2023-10-08T20:59:10;13.20;99.90
54158;DHT22;40065;49.894;10.358;2023-10-08T21:04:12;13.10;99.90
54158;DHT22;40065;49.894;10.358;2023-10-08T21:09:14;13.10;99.90
54158;DHT22;40065;49.894;10.358;2023-10-08T21:14:17;13.20;99.90
54158;DHT22;40065;49.894;10.358;2023-10-08T21:19:19;13.10;99.90
54158;DHT22;40065;49.894;10.358;2023-10-08T21:24:21;13.00;99.90
54158;DHT22;40065;49.894;10.358;2023-10-08T21:29:23;13.00;99.90
54158;DHT22;40065;49.894;10.358;2023-10-08T21:34:25;13.00;99.90
54158;DHT22;40065;49.894;10.358;2023-10-08T21:39:30;12.90;99.90
54158;DHT22;40065;49.894;10.358;2023-10-08T21:44:34;12.90;99.90
54158;DHT22;40065;49.894;10.358;2023-10-08T21:49:35;12.70;99.90
54158;DHT22;40065;49.894;10.358;2023-10-08T21:54:37;12.60;99.90
54158;DHT22;40065;49.894;10.358;2023-10-08T21:59:39;12.60;99.90
54158;DHT22;40065;49.894;10.358;2023-10-08T22:04:41;12.60;99.90
54158;DHT22;40065;49.894;10.358;2023-10-08T22:09:43;12.60;99.90
54158;DHT22;40065;49.894;10.358;2023-10-08T22:14:45;12.50;99.90
54158;DHT22;40065;49.894;10.358;2023-10-08T22:19:47;12.50;99.90
54158;DHT22;40065;49.894;10.358;2023-10-08T22:24:51;12.40;99.90
54158;DHT22;40065;49.894;10.358;2023-10-08T22:29:53;12.40;99.90
54158;DHT22;40065;49.894;10.358;2023-10-08T22:34:56;12.30;99.90
54158;DHT22;40065;49.894;10.358;2023-10-08T22:40:12;12.30;99.90
54158;DHT22;40065;49.894;10.358;2023-10-08T22:45:19;12.20;99.90
54158;DHT22;40065;49.894;10.358;2023-10-08T22:50:21;12.20;99.90
54158;DHT22;40065;49.894;10.358;2023-10-08T22:55:46;11.90;99.90
54158;DHT22;40065;49.894;10.358;2023-10-08T23:00:48;11.80;99.90
54158;DHT22;40065;49.894;10.358;2023-10-08T23:05:51;11.60;99.90
54158;DHT22;40065;49.894;10.358;2023-10-08T23:10:56;11.70;99.90
54158;DHT22;40065;49.894;10.358;2023-10-08T23:15:58;11.70;99.90
54158;DHT22;40065;49.894;10.358;2023-10-08T23:21:02;11.70;99.90
54158;DHT22;40065;49.894;10.358;2023-10-08T23:26:08;11.60;99.90
54158;DHT22;40065;49.894;10.358;2023-10-08T23:31:12;11.70;99.90
54158;DHT22;40065;49.894;10.358;2023-10-08T23:36:15;11.80;99.90
54158;DHT22;40065;49.894;10.358;2023-10-08T23:41:29;11.80;99.90
54158;DHT22;40065;49.894;10.358;2023-10-08T23:46:34;11.90;99.90
54158;DHT22;40065;49.894;10.358;2023-10-08T23:51:47;11.90;99.90
54158;DHT22;40065;49.894;10.358;2023-10-08T23:56:54;11.90;99.90
